createdAt,value
2016-07-09T00:00:18.870Z,58.8
2016-07-09T00:01:18.850Z,58.9
2016-07-09T00:02:18.838Z,58.8
2016-07-09T00:03:18.203Z,58.61
2016-07-09T00:04:18.805Z,58.9
2016-07-09T00:05:18.175Z,58.9
2016-07-09T00:06:18.778Z,58.8
2016-07-09T00:07:18.764Z,58.8
2016-07-09T00:08:18.748Z,58.7
2016-07-09T00:09:18.730Z,58.9
2016-07-09T00:10:18.715Z,58.8
2016-07-09T00:11:18.701Z,58.8
2016-07-09T00:12:18.686Z,58.8
2016-07-09T00:13:18.671Z,58.9
2016-07-09T00:14:18.658Z,59
2016-07-09T00:15:18.651Z,59
2016-07-09T00:16:18.637Z,58.8
2016-07-09T00:17:18.613Z,58.61
2016-07-09T00:18:18.593Z,58.61
2016-07-09T00:19:18.598Z,58.42
2016-07-09T00:20:18.570Z,58.61
2016-07-09T00:21:18.551Z,59
2016-07-09T00:22:18.539Z,58.61
2016-07-09T00:23:18.524Z,58.61
2016-07-09T00:24:18.500Z,58.7
2016-07-09T00:25:18.494Z,58.7
2016-07-09T00:26:18.480Z,58.61
2016-07-09T00:27:18.463Z,58.61
2016-07-09T00:28:18.442Z,58.61
2016-07-09T00:29:18.434Z,58.32
2016-07-09T00:30:18.416Z,58.51
2016-07-09T00:31:18.397Z,58.12
2016-07-09T00:32:18.386Z,58.32
2016-07-09T00:33:18.375Z,58.7
2016-07-09T00:34:18.355Z,58.32
2016-07-09T00:35:18.354Z,58.22
2016-07-09T00:36:18.326Z,58.51
2016-07-09T00:37:18.313Z,58.51
2016-07-09T00:38:18.297Z,58.22
2016-07-09T00:39:18.295Z,58.22
2016-07-09T00:40:17.653Z,58.22
2016-07-09T00:41:18.255Z,58.22
2016-07-09T00:42:18.238Z,58.22
2016-07-09T00:43:18.224Z,58.22
2016-07-09T00:44:18.205Z,58.32
2016-07-09T00:45:18.196Z,58.22
2016-07-09T00:46:17.559Z,58.22
2016-07-09T00:47:18.166Z,58.22
2016-07-09T00:48:18.138Z,58.22
2016-07-09T00:49:18.131Z,58.12
2016-07-09T00:50:18.115Z,58.42
2016-07-09T00:51:18.102Z,58.03
2016-07-09T00:52:18.088Z,58.03
2016-07-09T00:53:18.075Z,58.32
2016-07-09T00:54:18.052Z,58.32
2016-07-09T00:55:18.038Z,58.03
2016-07-09T00:56:18.022Z,58.03
2016-07-09T00:57:18.010Z,57.93
2016-07-09T00:58:17.994Z,58.42
2016-07-09T00:59:17.984Z,58.12
2016-07-09T01:00:17.970Z,58.03
2016-07-09T01:01:17.959Z,58.22
2016-07-09T01:02:17.936Z,58.22
2016-07-09T01:03:17.924Z,58.12
2016-07-09T01:04:17.288Z,58.22
2016-07-09T01:05:17.890Z,58.22
2016-07-09T01:06:17.870Z,58.22
2016-07-09T01:07:17.855Z,58.22
2016-07-09T01:08:17.844Z,58.22
2016-07-09T01:09:17.829Z,58.22
2016-07-09T01:10:17.816Z,58.22
2016-07-09T01:11:17.801Z,58.12
2016-07-09T01:12:17.784Z,58.42
2016-07-09T01:13:17.780Z,58.42
2016-07-09T01:14:17.140Z,58.42
2016-07-09T01:15:17.747Z,58.22
2016-07-09T01:16:17.724Z,58.32
2016-07-09T01:17:17.710Z,58.12
2016-07-09T01:18:17.693Z,58.22
2016-07-09T01:19:17.678Z,58.22
2016-07-09T01:20:17.664Z,58.32
2016-07-09T01:21:17.648Z,58.32
2016-07-09T01:22:17.632Z,58.03
2016-07-09T01:23:17.618Z,58.03
2016-07-09T01:24:17.601Z,58.12
2016-07-09T01:25:17.596Z,58.03
2016-07-09T01:26:17.571Z,58.22
2016-07-09T01:27:17.561Z,58.12
2016-07-09T01:28:17.551Z,58.42
2016-07-09T01:29:17.535Z,58.51
2016-07-09T01:30:17.517Z,58.9
2016-07-09T01:31:17.501Z,58.9
2016-07-09T01:32:17.481Z,58.7
2016-07-09T01:33:17.475Z,58.8
2016-07-09T01:34:17.453Z,58.61
2016-07-09T01:35:17.440Z,58.61
2016-07-09T01:36:17.423Z,58.7
2016-07-09T01:37:16.795Z,58.9
2016-07-09T01:38:17.398Z,58.7
2016-07-09T01:39:17.384Z,58.7
2016-07-09T01:40:17.362Z,58.8
2016-07-09T01:41:17.349Z,58.9
2016-07-09T01:42:17.333Z,58.9
2016-07-09T01:43:17.322Z,58.8
2016-07-09T01:44:17.307Z,58.7
2016-07-09T01:45:16.679Z,58.9
2016-07-09T01:46:17.270Z,58.9
2016-07-09T01:47:17.259Z,58.9
2016-07-09T01:48:17.242Z,58.9
2016-07-09T01:49:17.226Z,58.9
2016-07-09T01:50:16.612Z,58.8
2016-07-09T01:51:17.208Z,58.7
2016-07-09T01:52:17.188Z,58.8
2016-07-09T01:53:17.172Z,58.51
2016-07-09T01:54:16.536Z,58.7
2016-07-09T01:55:17.135Z,58.9
2016-07-09T01:56:17.119Z,58.42
2016-07-09T01:57:17.105Z,58.8
2016-07-09T01:58:17.089Z,58.8
2016-07-09T01:59:17.078Z,58.8
2016-07-09T02:00:16.444Z,58.7
2016-07-09T02:01:17.055Z,58.8
2016-07-09T02:02:17.034Z,58.9
2016-07-09T02:03:17.023Z,58.7
2016-07-09T02:04:17.004Z,58.9
2016-07-09T02:05:16.984Z,58.61
2016-07-09T02:06:16.357Z,58.9
2016-07-09T02:07:16.962Z,58.03
2016-07-09T02:08:16.943Z,58.51
2016-07-09T02:09:16.928Z,59
2016-07-09T02:10:16.912Z,58.8
2016-07-09T02:11:16.897Z,58.42
2016-07-09T02:12:16.266Z,58.51
2016-07-09T02:13:16.865Z,58.9
2016-07-09T02:14:16.852Z,58.7
2016-07-09T02:15:16.840Z,58.32
2016-07-09T02:16:16.822Z,58.42
2016-07-09T02:17:16.808Z,58.9
2016-07-09T02:18:16.183Z,58.51
2016-07-09T02:19:16.783Z,58.32
2016-07-09T02:20:16.764Z,58.51
2016-07-09T02:21:16.751Z,58.51
2016-07-09T02:22:16.736Z,58.61
2016-07-09T02:23:16.715Z,58.7
2016-07-09T02:24:16.701Z,58.32
2016-07-09T02:25:16.076Z,58.32
2016-07-09T02:26:16.673Z,58.51
2016-07-09T02:27:16.658Z,58.22
2016-07-09T02:28:16.647Z,58.22
2016-07-09T02:29:16.625Z,58.32
2016-07-09T02:30:16.618Z,58.8
2016-07-09T02:31:16.597Z,58.9
2016-07-09T02:32:16.582Z,58.61
2016-07-09T02:33:16.570Z,58.9
2016-07-09T02:34:16.549Z,58.42
2016-07-09T02:35:16.548Z,58.51
2016-07-09T02:36:16.519Z,58.42
2016-07-09T02:37:16.512Z,58.42
2016-07-09T02:38:16.495Z,58.9
2016-07-09T02:39:16.483Z,58.51
2016-07-09T02:40:16.466Z,58.61
2016-07-09T02:41:16.448Z,58.61
2016-07-09T02:42:16.433Z,58.7
2016-07-09T02:43:16.416Z,58.8
2016-07-09T02:44:16.403Z,58.7
2016-07-09T02:45:15.776Z,58.8
2016-07-09T02:46:16.370Z,58.7
2016-07-09T02:47:16.357Z,58.61
2016-07-09T02:48:16.347Z,58.8
2016-07-09T02:49:16.328Z,58.61
2016-07-09T02:50:16.314Z,58.7
2016-07-09T02:51:16.312Z,58.42
2016-07-09T02:52:15.666Z,58.42
2016-07-09T02:53:15.653Z,58.8
2016-07-09T02:54:16.256Z,58.7
2016-07-09T02:55:16.242Z,58.61
2016-07-09T02:56:16.225Z,58.8
2016-07-09T02:57:16.209Z,58.42
2016-07-09T02:58:16.195Z,58.42
2016-07-09T02:59:16.182Z,58.8
2016-07-09T03:00:16.179Z,58.8
2016-07-09T03:01:16.151Z,58.8
2016-07-09T03:02:16.136Z,58.61
2016-07-09T03:03:16.131Z,58.8
2016-07-09T03:04:16.106Z,58.8
2016-07-09T03:05:16.093Z,58.9
2016-07-09T03:06:16.078Z,59
2016-07-09T03:07:16.056Z,58.61
2016-07-09T03:08:16.043Z,58.61
2016-07-09T03:09:16.031Z,58.7
2016-07-09T03:10:16.013Z,58.42
2016-07-09T03:11:16.000Z,58.61
2016-07-09T03:12:15.980Z,58.7
2016-07-09T03:13:15.970Z,58.42
2016-07-09T03:14:15.953Z,58.8
2016-07-09T03:15:15.948Z,58.9
2016-07-09T03:16:15.929Z,58.7
2016-07-09T03:17:15.912Z,58.61
2016-07-09T03:18:15.892Z,58.61
2016-07-09T03:19:15.879Z,58.8
2016-07-09T03:20:15.863Z,58.7
2016-07-09T03:21:15.851Z,59
2016-07-09T03:22:15.843Z,58.42
2016-07-09T03:23:15.815Z,58.8
2016-07-09T03:24:15.803Z,58.42
2016-07-09T03:25:15.793Z,58.51
2016-07-09T03:26:15.775Z,58.42
2016-07-09T03:27:15.148Z,58.42
2016-07-09T03:28:15.749Z,58.42
2016-07-09T03:29:15.729Z,58.42
2016-07-09T03:30:15.769Z,58.8
2016-07-09T03:31:15.703Z,58.8
2016-07-09T03:32:15.693Z,58.9
2016-07-09T03:33:15.671Z,59
2016-07-09T03:34:15.661Z,58.8
2016-07-09T03:35:15.641Z,58.51
2016-07-09T03:36:15.008Z,59.09
2016-07-09T03:37:15.613Z,58.42
2016-07-09T03:38:15.602Z,58.51
2016-07-09T03:39:15.586Z,59.09
2016-07-09T03:40:15.564Z,58.8
2016-07-09T03:41:15.557Z,58.51
2016-07-09T03:42:15.539Z,58.8
2016-07-09T03:43:15.518Z,58.61
2016-07-09T03:44:15.510Z,58.8
2016-07-09T03:45:15.507Z,58.9
2016-07-09T03:46:15.475Z,58.61
2016-07-09T03:47:15.457Z,58.8
2016-07-09T03:48:15.444Z,58.51
2016-07-09T03:49:15.430Z,59
2016-07-09T03:50:15.427Z,58.61
2016-07-09T03:51:15.405Z,58.61
2016-07-09T03:52:15.384Z,59
2016-07-09T03:53:15.373Z,58.51
2016-07-09T03:54:15.357Z,58.9
2016-07-09T03:55:15.336Z,59
2016-07-09T03:56:15.333Z,58.9
2016-07-09T03:57:15.310Z,58.9
2016-07-09T03:58:15.297Z,59
2016-07-09T03:59:15.281Z,58.9
2016-07-09T04:00:15.266Z,59
2016-07-09T04:01:14.634Z,58.8
2016-07-09T04:02:15.235Z,59
2016-07-09T04:03:15.231Z,58.51
2016-07-09T04:04:14.591Z,58.7
2016-07-09T04:05:15.192Z,58.9
2016-07-09T04:06:15.178Z,58.61
2016-07-09T04:07:14.555Z,59
2016-07-09T04:08:15.148Z,58.9
2016-07-09T04:09:15.131Z,59
2016-07-09T04:10:15.116Z,58.39
2016-07-09T04:11:15.100Z,58.42
2016-07-09T04:12:15.087Z,59
2016-07-09T04:13:15.070Z,58.8
2016-07-09T04:14:15.055Z,58.8
2016-07-09T04:15:15.041Z,59.19
2016-07-09T04:16:15.026Z,58.61
2016-07-09T04:17:15.007Z,58.8
2016-07-09T04:18:14.998Z,58.8
2016-07-09T04:19:14.981Z,58.8
2016-07-09T04:20:14.965Z,58.77
2016-07-09T04:21:14.950Z,58.42
2016-07-09T04:22:14.937Z,58.8
2016-07-09T04:23:14.921Z,58.61
2016-07-09T04:24:14.908Z,58.61
2016-07-09T04:25:14.891Z,58.61
2016-07-09T04:26:14.876Z,58.42
2016-07-09T04:27:14.862Z,58.58
2016-07-09T04:28:14.851Z,58.58
2016-07-09T04:29:14.828Z,58.61
2016-07-09T04:30:14.869Z,58.42
2016-07-09T04:31:14.794Z,58.48
2016-07-09T04:32:14.787Z,58.68
2016-07-09T04:33:14.766Z,58.77
2016-07-09T04:34:14.758Z,58.77
2016-07-09T04:35:14.737Z,58.58
2016-07-09T04:36:14.727Z,58.39
2016-07-09T04:37:14.708Z,58.39
2016-07-09T04:38:14.082Z,58.61
2016-07-09T04:39:14.682Z,58.58
2016-07-09T04:40:14.665Z,58.68
2016-07-09T04:41:14.651Z,58.68
2016-07-09T04:42:14.637Z,58.48
2016-07-09T04:43:14.615Z,58.61
2016-07-09T04:44:14.615Z,58.58
2016-07-09T04:45:14.589Z,58.77
2016-07-09T04:46:14.577Z,58.7
2016-07-09T04:47:14.565Z,58.77
2016-07-09T04:48:14.546Z,58.68
2016-07-09T04:49:14.528Z,58.58
2016-07-09T04:50:14.515Z,58.61
2016-07-09T04:51:13.884Z,58.58
2016-07-09T04:52:14.488Z,58.68
2016-07-09T04:53:13.848Z,58.58
2016-07-09T04:54:14.457Z,58.58
2016-07-09T04:55:14.441Z,58.68
2016-07-09T04:56:14.428Z,58.68
2016-07-09T04:57:14.411Z,58.77
2016-07-09T04:58:14.391Z,58.68
2016-07-09T04:59:13.764Z,58.77
2016-07-09T05:00:14.367Z,58.77
2016-07-09T05:01:13.730Z,58.29
2016-07-09T05:02:14.329Z,58.58
2016-07-09T05:03:14.315Z,58.39
2016-07-09T05:04:14.303Z,58.8
2016-07-09T05:05:13.678Z,58.77
2016-07-09T05:06:14.278Z,58.39
2016-07-09T05:07:14.258Z,58.58
2016-07-09T05:08:14.241Z,58.77
2016-07-09T05:09:14.226Z,58.68
2016-07-09T05:10:14.218Z,58.77
2016-07-09T05:11:13.584Z,58.77
2016-07-09T05:12:14.188Z,58.58
2016-07-09T05:13:14.166Z,58.58
2016-07-09T05:14:14.156Z,58.48
2016-07-09T05:15:14.137Z,58.77
2016-07-09T05:16:14.127Z,58.58
2016-07-09T05:17:14.111Z,58.77
2016-07-09T05:18:14.096Z,58.68
2016-07-09T05:19:14.076Z,58.68
2016-07-09T05:20:14.059Z,58.77
2016-07-09T05:21:14.043Z,58.48
2016-07-09T05:22:14.036Z,58.68
2016-07-09T05:23:14.019Z,58.48
2016-07-09T05:24:13.388Z,58.39
2016-07-09T05:25:13.983Z,58.42
2016-07-09T05:26:13.970Z,58.68
2016-07-09T05:27:13.956Z,58.87
2016-07-09T05:28:13.935Z,58.68
2016-07-09T05:29:13.926Z,58.7
2016-07-09T05:30:13.909Z,58.51
2016-07-09T05:31:13.890Z,58.58
2016-07-09T05:32:13.889Z,58.42
2016-07-09T05:33:13.863Z,58.8
2016-07-09T05:34:13.846Z,58.58
2016-07-09T05:35:13.837Z,58.51
2016-07-09T05:36:13.820Z,58.61
2016-07-09T05:37:13.810Z,58.51
2016-07-09T05:38:13.789Z,58.42
2016-07-09T05:39:13.780Z,58.77
2016-07-09T05:40:13.761Z,58.97
2016-07-09T05:41:13.747Z,58.8
2016-07-09T05:42:13.730Z,58.42
2016-07-09T05:43:13.719Z,58.51
2016-07-09T05:44:13.695Z,58.51
2016-07-09T05:45:13.684Z,58.77
2016-07-09T05:46:13.676Z,58.77
2016-07-09T05:47:13.656Z,59.09
2016-07-09T05:48:13.639Z,58.77
2016-07-09T05:49:13.622Z,58.42
2016-07-09T05:50:13.608Z,58.87
2016-07-09T05:51:13.601Z,58.39
2016-07-09T05:52:13.574Z,58.39
2016-07-09T05:53:13.562Z,58.8
2016-07-09T05:54:13.547Z,58.48
2016-07-09T05:55:13.529Z,58.48
2016-07-09T05:56:13.521Z,58.9
2016-07-09T05:57:12.888Z,58.51
2016-07-09T05:58:13.502Z,58.97
2016-07-09T05:59:12.859Z,58.97
2016-07-09T06:00:13.454Z,58.77
2016-07-09T06:01:13.437Z,58.77
2016-07-09T06:02:13.427Z,58.77
2016-07-09T06:03:13.412Z,58.8
2016-07-09T06:04:13.403Z,58.68
2016-07-09T06:05:13.380Z,58.77
2016-07-09T06:06:12.756Z,58.87
2016-07-09T06:07:13.353Z,58.48
2016-07-09T06:08:13.339Z,58.48
2016-07-09T06:09:13.325Z,59
2016-07-09T06:10:12.691Z,58.42
2016-07-09T06:11:13.293Z,58.51
2016-07-09T06:12:13.275Z,58.42
2016-07-09T06:13:13.265Z,58.48
2016-07-09T06:14:13.245Z,58.7
2016-07-09T06:15:13.231Z,58.61
2016-07-09T06:16:13.215Z,58.51
2016-07-09T06:17:13.204Z,58.7
2016-07-09T06:18:13.185Z,58.8
2016-07-09T06:19:13.175Z,58.77
2016-07-09T06:20:13.155Z,58.39
2016-07-09T06:21:13.143Z,58.29
2016-07-09T06:22:13.130Z,58.51
2016-07-09T06:23:13.109Z,59
2016-07-09T06:24:13.097Z,58.97
2016-07-09T06:25:13.086Z,58.77
2016-07-09T06:26:13.066Z,58.87
2016-07-09T06:27:13.053Z,58.58
2016-07-09T06:28:13.043Z,58.8
2016-07-09T06:29:13.023Z,58.58
2016-07-09T06:30:13.007Z,58.51
2016-07-09T06:31:12.993Z,58.8
2016-07-09T06:32:12.971Z,58.97
2016-07-09T06:33:12.963Z,58.77
2016-07-09T06:34:12.943Z,58.8
2016-07-09T06:35:12.935Z,58.77
2016-07-09T06:36:12.916Z,58.77
2016-07-09T06:37:12.287Z,58.39
2016-07-09T06:38:12.274Z,58.77
2016-07-09T06:39:12.876Z,58.87
2016-07-09T06:40:12.854Z,59.06
2016-07-09T06:41:12.841Z,58.48
2016-07-09T06:42:12.825Z,58.61
2016-07-09T06:43:12.816Z,59.06
2016-07-09T06:44:12.793Z,58.77
2016-07-09T06:45:12.780Z,59.06
2016-07-09T06:46:12.761Z,58.51
2016-07-09T06:47:12.756Z,58.8
2016-07-09T06:48:12.738Z,58.39
2016-07-09T06:49:12.723Z,58.58
2016-07-09T06:50:12.703Z,59
2016-07-09T06:51:12.695Z,58.39
2016-07-09T06:52:12.670Z,58.42
2016-07-09T06:53:12.660Z,58.58
2016-07-09T06:54:12.648Z,58.58
2016-07-09T06:55:12.018Z,58.39
2016-07-09T06:56:12.623Z,58.8
2016-07-09T06:57:12.601Z,58.48
2016-07-09T06:58:12.584Z,58.61
2016-07-09T06:59:11.955Z,58.58
2016-07-09T07:00:12.555Z,58.51
2016-07-09T07:01:12.541Z,58.48
2016-07-09T07:02:12.521Z,58.51
2016-07-09T07:03:12.512Z,58.97
2016-07-09T07:04:12.495Z,58.58
2016-07-09T07:05:12.475Z,59.16
2016-07-09T07:06:12.465Z,58.77
2016-07-09T07:07:12.453Z,59.25
2016-07-09T07:08:12.432Z,59.16
2016-07-09T07:09:12.419Z,59.19
2016-07-09T07:10:12.402Z,59.19
2016-07-09T07:11:12.388Z,59.86
2016-07-09T07:12:12.374Z,59.28
2016-07-09T07:13:12.361Z,59.45
2016-07-09T07:14:12.345Z,59.16
2016-07-09T07:15:11.715Z,59.06
2016-07-09T07:16:12.308Z,59.45
2016-07-09T07:17:12.297Z,59.45
2016-07-09T07:18:12.286Z,59.74
2016-07-09T07:19:12.260Z,59.55
2016-07-09T07:20:12.257Z,59.67
2016-07-09T07:21:12.248Z,59.58
2016-07-09T07:22:12.220Z,59.96
2016-07-09T07:23:12.203Z,59.64
2016-07-09T07:24:12.193Z,59.74
2016-07-09T07:25:12.182Z,59.55
2016-07-09T07:26:12.166Z,59.86
2016-07-09T07:27:12.148Z,59.64
2016-07-09T07:28:12.132Z,59.38
2016-07-09T07:29:12.135Z,59.67
2016-07-09T07:30:12.106Z,59.67
2016-07-09T07:31:12.085Z,59.58
2016-07-09T07:32:12.069Z,59.38
2016-07-09T07:33:12.058Z,59.67
2016-07-09T07:34:12.038Z,59.38
2016-07-09T07:35:12.027Z,59.09
2016-07-09T07:36:12.012Z,59.16
2016-07-09T07:37:11.998Z,59.45
2016-07-09T07:38:11.979Z,59.45
2016-07-09T07:39:11.352Z,59.25
2016-07-09T07:40:11.947Z,59.06
2016-07-09T07:41:11.938Z,59.35
2016-07-09T07:42:11.918Z,59.25
2016-07-09T07:43:11.906Z,59.35
2016-07-09T07:44:11.888Z,59.06
2016-07-09T07:45:11.873Z,59.28
2016-07-09T07:46:11.857Z,59.16
2016-07-09T07:47:11.851Z,59.35
2016-07-09T07:48:11.836Z,59.25
2016-07-09T07:49:11.809Z,59
2016-07-09T07:50:11.186Z,59
2016-07-09T07:51:11.788Z,59.06
2016-07-09T07:52:11.771Z,58.87
2016-07-09T07:53:11.758Z,58.77
2016-07-09T07:54:11.741Z,58.97
2016-07-09T07:55:11.726Z,59.06
2016-07-09T07:56:11.718Z,59.19
2016-07-09T07:57:11.713Z,58.7
2016-07-09T07:58:11.683Z,58.8
2016-07-09T07:59:11.671Z,59
2016-07-09T08:00:11.657Z,59
2016-07-09T08:01:11.643Z,58.7
2016-07-09T08:02:11.622Z,59.09
2016-07-09T08:03:11.601Z,58.8
2016-07-09T08:04:11.593Z,58.7
2016-07-09T08:05:11.568Z,58.51
2016-07-09T08:06:11.558Z,58.8
2016-07-09T08:07:11.543Z,58.42
2016-07-09T08:08:11.533Z,58.42
2016-07-09T08:09:11.516Z,58.42
2016-07-09T08:10:11.501Z,58.42
2016-07-09T08:11:11.484Z,58.42
2016-07-09T08:12:11.469Z,58.42
2016-07-09T08:13:11.457Z,59
2016-07-09T08:14:11.441Z,59
2016-07-09T08:15:11.420Z,59
2016-07-09T08:16:11.413Z,58.9
2016-07-09T08:17:11.395Z,58.61
2016-07-09T08:18:11.383Z,58.8
2016-07-09T08:19:11.362Z,58.9
2016-07-09T08:20:11.351Z,59
2016-07-09T08:21:11.336Z,58.9
2016-07-09T08:22:11.322Z,58.8
2016-07-09T08:23:11.311Z,58.9
2016-07-09T08:24:11.291Z,59
2016-07-09T08:25:11.268Z,59
2016-07-09T08:26:11.263Z,59
2016-07-09T08:27:11.244Z,59
2016-07-09T08:28:11.237Z,58.9
2016-07-09T08:29:11.212Z,58.9
2016-07-09T08:30:11.203Z,58.9
2016-07-09T08:31:11.182Z,58.51
2016-07-09T08:32:11.173Z,58.8
2016-07-09T08:33:11.155Z,59
2016-07-09T08:34:11.144Z,58.51
2016-07-09T08:35:11.129Z,58.42
2016-07-09T08:36:11.106Z,58.42
2016-07-09T08:37:11.093Z,58.8
2016-07-09T08:38:11.077Z,58.61
2016-07-09T08:39:11.058Z,58.7
2016-07-09T08:40:11.048Z,58.7
2016-07-09T08:41:11.046Z,58.8
2016-07-09T08:42:11.016Z,58.7
2016-07-09T08:43:11.003Z,58.9
2016-07-09T08:44:10.994Z,58.7
2016-07-09T08:45:10.973Z,58.8
2016-07-09T08:46:10.959Z,58.9
2016-07-09T08:47:10.940Z,58.51
2016-07-09T08:48:10.926Z,56.1
2016-07-09T08:49:10.912Z,54.27
2016-07-09T08:50:10.896Z,54.53
2016-07-09T08:51:10.881Z,54.53
2016-07-09T08:52:10.253Z,53.56
2016-07-09T08:53:10.239Z,53.85
2016-07-09T08:54:10.839Z,54.72
2016-07-09T08:55:10.826Z,54.53
2016-07-09T08:56:10.804Z,54.05
2016-07-09T08:57:10.794Z,53.47
2016-07-09T08:58:10.772Z,53.92
2016-07-09T08:59:10.759Z,53.44
2016-07-09T09:00:10.756Z,53.44
2016-07-09T09:01:10.738Z,53.08
2016-07-09T09:02:10.712Z,51.89
2016-07-09T09:03:10.702Z,52.37
2016-07-09T09:04:10.077Z,52.47
2016-07-09T09:05:10.671Z,52.67
2016-07-09T09:06:10.042Z,52.86
2016-07-09T09:07:10.642Z,52.86
2016-07-09T09:08:10.636Z,52.95
2016-07-09T09:09:10.608Z,53.17
2016-07-09T09:10:10.618Z,52.09
2016-07-09T09:11:10.581Z,51.05
2016-07-09T09:12:10.562Z,51.44
2016-07-09T09:13:10.547Z,51.22
2016-07-09T09:14:10.540Z,51.99
2016-07-09T09:15:10.522Z,51.99
2016-07-09T09:16:09.893Z,53.05
2016-07-09T09:17:10.487Z,52.95
2016-07-09T09:18:10.473Z,53.34
2016-07-09T09:19:10.463Z,53.44
2016-07-09T09:20:10.435Z,53.53
2016-07-09T09:21:10.430Z,53.63
2016-07-09T09:22:10.420Z,53.73
2016-07-09T09:23:10.393Z,53.44
2016-07-09T09:24:10.384Z,53.83
2016-07-09T09:25:10.365Z,54.4
2016-07-09T09:26:10.343Z,54.21
2016-07-09T09:27:10.334Z,53.63
2016-07-09T09:28:10.313Z,53.63
2016-07-09T09:29:10.302Z,53.53
2016-07-09T09:30:10.287Z,53.83
2016-07-09T09:31:10.275Z,53.63
2016-07-09T09:32:10.258Z,53.44
2016-07-09T09:33:10.240Z,52.98
2016-07-09T09:34:10.223Z,52.09
2016-07-09T09:35:10.205Z,51.73
2016-07-09T09:36:10.189Z,51.99
2016-07-09T09:37:09.563Z,51.61
2016-07-09T09:38:10.165Z,51.53
2016-07-09T09:39:10.145Z,51.89
2016-07-09T09:40:10.138Z,51.99
2016-07-09T09:41:10.119Z,51.99
2016-07-09T09:42:10.107Z,52.19
2016-07-09T09:43:10.085Z,52.37
2016-07-09T09:44:10.070Z,51.8
2016-07-09T09:45:10.055Z,51.7
2016-07-09T09:46:10.040Z,52.09
2016-07-09T09:47:10.022Z,51.89
2016-07-09T09:48:09.392Z,51.73
2016-07-09T09:49:09.992Z,52.11
2016-07-09T09:50:09.990Z,52.4
2016-07-09T09:51:09.961Z,51.82
2016-07-09T09:52:09.946Z,51.82
2016-07-09T09:53:09.931Z,52.4
2016-07-09T09:54:09.920Z,52.31
2016-07-09T09:55:09.902Z,52.4
2016-07-09T09:56:09.268Z,52.4
2016-07-09T09:57:09.251Z,52.21
2016-07-09T09:58:09.861Z,51.92
2016-07-09T09:59:09.225Z,52.01
2016-07-09T10:00:09.830Z,52.01
2016-07-09T10:01:09.198Z,51.82
2016-07-09T10:02:09.175Z,52.11
2016-07-09T10:03:09.770Z,52.21
2016-07-09T10:04:09.758Z,51.73
2016-07-09T10:05:09.743Z,51.53
2016-07-09T10:06:09.726Z,52.11
2016-07-09T10:07:09.103Z,51.73
2016-07-09T10:08:09.703Z,52.01
2016-07-09T10:09:09.688Z,52.31
2016-07-09T10:10:09.682Z,52.01
2016-07-09T10:11:09.032Z,52.01
2016-07-09T10:12:09.024Z,51.82
2016-07-09T10:13:09.621Z,51.73
2016-07-09T10:14:09.602Z,51.82
2016-07-09T10:15:09.592Z,52.01
2016-07-09T10:16:08.965Z,51.92
2016-07-09T10:17:09.556Z,52.01
2016-07-09T10:18:09.551Z,52.01
2016-07-09T10:19:09.540Z,52.11
2016-07-09T10:20:09.513Z,52.04
2016-07-09T10:21:09.499Z,52.04
2016-07-09T10:22:09.489Z,52.04
2016-07-09T10:23:09.470Z,52.01
2016-07-09T10:24:09.465Z,52.11
2016-07-09T10:25:09.442Z,52.43
2016-07-09T10:26:09.426Z,52.14
2016-07-09T10:27:09.415Z,52.04
2016-07-09T10:28:09.395Z,52.04
2016-07-09T10:29:09.379Z,52.04
2016-07-09T10:30:09.376Z,52.14
2016-07-09T10:31:09.345Z,51.17
2016-07-09T10:32:09.332Z,51.95
2016-07-09T10:33:09.317Z,51.65
2016-07-09T10:34:09.302Z,51.85
2016-07-09T10:35:09.286Z,51.56
2016-07-09T10:36:09.271Z,52.14
2016-07-09T10:37:09.261Z,51.56
2016-07-09T10:38:09.236Z,51.65
2016-07-09T10:39:09.218Z,51.75
2016-07-09T10:40:09.222Z,51.65
2016-07-09T10:41:09.198Z,51.46
2016-07-09T10:42:09.177Z,51.37
2016-07-09T10:43:09.170Z,51.85
2016-07-09T10:44:09.159Z,52.04
2016-07-09T10:45:09.139Z,51.95
2016-07-09T10:46:09.121Z,52.04
2016-07-09T10:47:09.102Z,51.95
2016-07-09T10:48:09.090Z,51.56
2016-07-09T10:49:09.070Z,52.04
2016-07-09T10:50:09.063Z,52.14
2016-07-09T10:51:09.046Z,51.17
2016-07-09T10:52:09.026Z,51.95
2016-07-09T10:53:08.399Z,51.85
2016-07-09T10:54:08.997Z,52.23
2016-07-09T10:55:08.987Z,52.04
2016-07-09T10:56:08.966Z,51.85
2016-07-09T10:57:08.959Z,52.04
2016-07-09T10:58:08.937Z,52.04
2016-07-09T10:59:08.920Z,52.04
2016-07-09T11:00:08.908Z,52.14
2016-07-09T11:01:08.895Z,52.04
2016-07-09T11:02:08.874Z,51.56
2016-07-09T11:03:08.862Z,51.27
2016-07-09T11:04:08.846Z,51.85
2016-07-09T11:05:08.833Z,52.14
2016-07-09T11:06:08.820Z,52.14
2016-07-09T11:07:08.809Z,52.04
2016-07-09T11:08:08.787Z,52.33
2016-07-09T11:09:08.776Z,52.43
2016-07-09T11:10:08.756Z,52.14
2016-07-09T11:11:08.744Z,53.2
2016-07-09T11:12:08.726Z,53.01
2016-07-09T11:13:08.717Z,51.85
2016-07-09T11:14:08.702Z,51.56
2016-07-09T11:15:08.681Z,52.04
2016-07-09T11:16:08.671Z,52.04
2016-07-09T11:17:08.654Z,52.14
2016-07-09T11:18:08.639Z,52.04
2016-07-09T11:19:08.624Z,52.04
2016-07-09T11:20:08.609Z,51.95
2016-07-09T11:21:08.589Z,52.04
2016-07-09T11:22:08.577Z,52.04
2016-07-09T11:23:08.563Z,52.14
2016-07-09T11:24:08.552Z,51.97
2016-07-09T11:25:08.531Z,51.95
2016-07-09T11:26:08.516Z,52.04
2016-07-09T11:27:08.500Z,52.04
2016-07-09T11:28:08.490Z,52.04
2016-07-09T11:29:08.472Z,52.17
2016-07-09T11:30:08.451Z,51.75
2016-07-09T11:31:08.438Z,52.33
2016-07-09T11:32:08.428Z,52.53
2016-07-09T11:33:08.413Z,52.33
2016-07-09T11:34:08.402Z,52.65
2016-07-09T11:35:08.382Z,52.45
2016-07-09T11:36:08.372Z,52.36
2016-07-09T11:37:08.352Z,52.33
2016-07-09T11:38:08.339Z,52.65
2016-07-09T11:39:08.320Z,52.33
2016-07-09T11:40:08.309Z,52.36
2016-07-09T11:41:08.296Z,51.97
2016-07-09T11:42:07.665Z,52.26
2016-07-09T11:43:08.263Z,51.87
2016-07-09T11:44:08.245Z,52.07
2016-07-09T11:45:08.234Z,51.97
2016-07-09T11:46:08.218Z,52.17
2016-07-09T11:47:08.210Z,51.97
2016-07-09T11:48:08.188Z,52.07
2016-07-09T11:49:08.190Z,52.17
2016-07-09T11:50:08.159Z,52.07
2016-07-09T11:51:08.143Z,51.97
2016-07-09T11:52:07.517Z,51.78
2016-07-09T11:53:08.121Z,52.17
2016-07-09T11:54:07.498Z,51.87
2016-07-09T11:55:08.087Z,51.97
2016-07-09T11:56:08.070Z,51.97
2016-07-09T11:57:08.056Z,52.45
2016-07-09T11:58:08.041Z,52.36
2016-07-09T11:59:08.026Z,52.55
2016-07-09T12:00:08.006Z,52.36
2016-07-09T12:01:07.994Z,52.45
2016-07-09T12:02:07.982Z,52.45
2016-07-09T12:03:07.963Z,52.55
2016-07-09T12:04:07.949Z,52.17
2016-07-09T12:05:07.937Z,52.26
2016-07-09T12:06:07.922Z,51.68
2016-07-09T12:07:07.915Z,51.59
2016-07-09T12:08:07.891Z,52.17
2016-07-09T12:09:07.881Z,52.17
2016-07-09T12:10:07.859Z,52.17
2016-07-09T12:11:07.845Z,52.17
2016-07-09T12:12:07.830Z,51.97
2016-07-09T12:13:07.819Z,52.07
2016-07-09T12:14:07.800Z,52.07
2016-07-09T12:15:07.788Z,52.26
2016-07-09T12:16:07.775Z,52.36
2016-07-09T12:17:07.761Z,51.97
2016-07-09T12:18:07.741Z,51.97
2016-07-09T12:19:07.734Z,52.17
2016-07-09T12:20:07.711Z,52.26
2016-07-09T12:21:07.697Z,51.97
2016-07-09T12:22:07.687Z,51.39
2016-07-09T12:23:07.669Z,51.23
2016-07-09T12:24:07.663Z,51.29
2016-07-09T12:25:07.644Z,51.59
2016-07-09T12:26:07.634Z,51.59
2016-07-09T12:27:07.614Z,51.2
2016-07-09T12:28:06.985Z,51.49
2016-07-09T12:29:07.583Z,51.68
2016-07-09T12:30:07.567Z,52.17
2016-07-09T12:31:07.549Z,52.07
2016-07-09T12:32:07.536Z,51.39
2016-07-09T12:33:07.524Z,51.13
2016-07-09T12:34:06.890Z,51.13
2016-07-09T12:35:06.880Z,51.13
2016-07-09T12:36:07.477Z,50.93
2016-07-09T12:37:07.466Z,50.84
2016-07-09T12:38:07.449Z,51.13
2016-07-09T12:39:07.445Z,50.93
2016-07-09T12:40:07.421Z,51.03
2016-07-09T12:41:07.400Z,50.84
2016-07-09T12:42:07.386Z,50.65
2016-07-09T12:43:07.376Z,50.55
2016-07-09T12:44:07.356Z,50.84
2016-07-09T12:45:07.347Z,50.84
2016-07-09T12:46:07.325Z,50.65
2016-07-09T12:47:07.314Z,50.65
2016-07-09T12:48:07.303Z,50.07
2016-07-09T12:49:07.285Z,49.77
2016-07-09T12:50:07.271Z,49.77
2016-07-09T12:51:06.641Z,49.58
2016-07-09T12:52:07.236Z,49.68
2016-07-09T12:53:06.619Z,49.97
2016-07-09T12:54:07.210Z,50.35
2016-07-09T12:55:07.192Z,49.97
2016-07-09T12:56:07.185Z,49.77
2016-07-09T12:57:06.552Z,49.58
2016-07-09T12:58:07.154Z,49.39
2016-07-09T12:59:07.138Z,50.26
2016-07-09T13:00:07.122Z,49.97